createdAt,value
2022-12-24T00:02:08.754Z,4.32
2022-12-24T00:07:12.688Z,4.22
2022-12-24T00:12:16.193Z,4.29
2022-12-24T00:17:19.697Z,4.25
2022-12-24T00:22:22.897Z,4.17
2022-12-24T00:27:26.206Z,4.13
2022-12-24T00:32:29.846Z,4.23
2022-12-24T00:37:32.896Z,4.11
2022-12-24T00:42:37.103Z,4.14
2022-12-24T00:47:41.034Z,4.21
2022-12-24T00:52:44.581Z,4.10
2022-12-24T00:57:48.643Z,4.16
2022-12-24T01:02:52.020Z,4.13
2022-12-24T01:07:55.740Z,3.65
2022-12-24T01:13:02.728Z,4.21
2022-12-24T01:18:05.931Z,4.11
2022-12-24T01:23:10.005Z,4.15
2022-12-24T01:28:13.605Z,4.33
2022-12-24T01:33:17.779Z,4.44
2022-12-24T01:38:21.272Z,4.62
2022-12-24T01:43:28.918Z,4.78
2022-12-24T01:48:32.476Z,4.69
2022-12-24T01:53:38.883Z,4.61
2022-12-24T01:58:46.808Z,4.67
2022-12-24T02:03:51.086Z,4.64
2022-12-24T02:08:55.874Z,4.53
2022-12-24T02:14:02.512Z,4.44
2022-12-24T02:19:23.859Z,4.25
2022-12-24T02:24:44.067Z,4.41
2022-12-24T02:30:21.402Z,4.36
2022-12-24T02:35:48.729Z,4.40
2022-12-24T02:41:02.538Z,4.55
2022-12-24T02:46:23.675Z,4.62
2022-12-24T02:51:27.334Z,4.43
2022-12-24T02:56:33.549Z,4.46
2022-12-24T03:01:48.269Z,4.61
2022-12-24T03:07:00.301Z,4.83
2022-12-24T03:12:36.215Z,4.70
2022-12-24T03:17:41.151Z,4.72
2022-12-24T03:22:44.915Z,4.79
2022-12-24T03:27:48.950Z,4.73
2022-12-24T03:32:52.537Z,4.74
2022-12-24T03:37:57.203Z,4.72
2022-12-24T03:43:00.762Z,4.76
2022-12-24T03:48:05.264Z,4.65
2022-12-24T03:53:09.498Z,4.79
2022-12-24T03:58:13.222Z,4.84
2022-12-24T04:03:16.434Z,4.76
2022-12-24T04:08:20.089Z,4.59
2022-12-24T04:13:23.223Z,4.78
2022-12-24T04:18:27.466Z,4.98
2022-12-24T04:23:35.259Z,5.11
2022-12-24T04:28:40.228Z,5.19
2022-12-24T04:33:44.130Z,5.06
2022-12-24T04:38:49.524Z,4.99
2022-12-24T04:43:54.420Z,4.85
2022-12-24T04:48:58.968Z,4.89
2022-12-24T04:54:02.170Z,4.70
2022-12-24T04:59:05.856Z,4.52
2022-12-24T05:04:11.453Z,4.51
2022-12-24T05:09:14.931Z,4.45
2022-12-24T05:14:18.555Z,4.38
2022-12-24T05:19:22.027Z,4.32
2022-12-24T05:24:43.561Z,4.26
2022-12-24T05:29:46.750Z,4.30
2022-12-24T05:34:50.507Z,4.25
2022-12-24T05:39:54.006Z,4.35
2022-12-24T05:44:57.575Z,4.45
2022-12-24T05:50:01.196Z,4.40
2022-12-24T05:55:04.682Z,4.49
2022-12-24T06:00:09.748Z,4.64
2022-12-24T06:05:15.777Z,4.69
2022-12-24T06:10:19.808Z,4.70
2022-12-24T06:15:24.364Z,4.85
2022-12-24T06:20:27.619Z,4.84
2022-12-24T06:25:31.791Z,4.83
2022-12-24T06:30:35.577Z,5.08
2022-12-24T06:35:39.094Z,5.14
2022-12-24T06:40:45.326Z,5.28
2022-12-24T06:45:48.797Z,5.66
2022-12-24T06:50:52.432Z,5.63
2022-12-24T06:56:08.085Z,6.12
2022-12-24T07:01:14.803Z,6.57
2022-12-24T07:06:30.346Z,6.83
2022-12-24T07:11:33.540Z,10.46
2022-12-24T07:16:37.859Z,14.21
2022-12-24T07:21:41.711Z,16.50
2022-12-24T07:26:45.250Z,18.39
2022-12-24T07:31:49.141Z,19.37
2022-12-24T07:36:52.257Z,19.71
2022-12-24T07:41:55.308Z,20.34
2022-12-24T07:46:59.121Z,20.29
2022-12-24T07:52:03.132Z,21.10
2022-12-24T07:57:07.278Z,21.42
2022-12-24T08:02:18.199Z,21.34
2022-12-24T08:07:22.465Z,21.60
2022-12-24T08:12:25.582Z,22.05
2022-12-24T08:17:32.378Z,23.27
2022-12-24T08:22:36.353Z,22.39
2022-12-24T08:27:39.982Z,21.07
2022-12-24T08:32:43.055Z,21.81
2022-12-24T08:37:46.612Z,21.51
2022-12-24T08:42:50.250Z,20.68
2022-12-24T08:47:54.061Z,20.20
2022-12-24T08:52:57.056Z,20.54
2022-12-24T08:58:01.128Z,18.98
2022-12-24T09:03:04.573Z,18.81
2022-12-24T09:08:08.558Z,19.40
2022-12-24T09:13:12.363Z,19.56
2022-12-24T09:18:17.065Z,19.29
2022-12-24T09:23:21.054Z,19.21
2022-12-24T09:28:24.890Z,18.60
2022-12-24T09:33:32.326Z,18.03
2022-12-24T09:38:36.818Z,17.35
2022-12-24T09:43:45.223Z,18.59
2022-12-24T09:48:53.427Z,18.72
2022-12-24T09:54:24.851Z,18.34
2022-12-24T09:59:44.898Z,19.45
2022-12-24T10:04:49.245Z,19.83
2022-12-24T10:10:10.440Z,19.98
2022-12-24T10:15:31.116Z,20.00
2022-12-24T10:20:59.483Z,19.97
2022-12-24T10:26:12.515Z,19.15
2022-12-24T10:31:16.155Z,18.30
2022-12-24T10:36:25.932Z,18.72
2022-12-24T10:41:31.452Z,18.60
2022-12-24T10:46:40.004Z,18.74
2022-12-24T10:51:54.800Z,18.33
2022-12-24T10:57:01.736Z,18.41
2022-12-24T11:02:25.560Z,18.17
2022-12-24T11:07:32.136Z,18.08
2022-12-24T11:13:00.203Z,18.12
2022-12-24T11:18:15.556Z,17.83
2022-12-24T11:23:19.118Z,17.71
2022-12-24T11:28:30.373Z,17.72
2022-12-24T11:33:47.901Z,18.13
2022-12-24T11:38:56.408Z,18.48
2022-12-24T11:44:05.013Z,18.43
2022-12-24T11:49:25.092Z,18.38
2022-12-24T11:54:32.538Z,18.83
2022-12-24T11:59:41.915Z,18.87
2022-12-24T12:04:50.415Z,18.57
2022-12-24T12:10:06.381Z,18.59
2022-12-24T12:15:14.861Z,18.96
2022-12-24T12:20:29.400Z,19.19
2022-12-24T12:25:44.827Z,19.19
2022-12-24T12:31:01.134Z,18.94
2022-12-24T12:36:05.586Z,18.76
2022-12-24T12:41:08.584Z,17.70
2022-12-24T12:46:17.562Z,17.44
2022-12-24T12:51:49.869Z,18.44
2022-12-24T12:56:58.170Z,18.41
2022-12-24T13:02:32.322Z,17.94
2022-12-24T13:08:09.879Z,17.47
2022-12-24T13:13:41.390Z,17.52
2022-12-24T13:19:08.099Z,16.80
2022-12-24T13:24:19.486Z,17.35
2022-12-24T13:29:40.933Z,17.21
2022-12-24T13:34:50.205Z,16.75
2022-12-24T13:40:08.977Z,16.10
2022-12-24T13:45:30.746Z,15.86
2022-12-24T13:50:53.829Z,16.02
2022-12-24T13:56:00.464Z,16.65
2022-12-24T14:01:08.970Z,16.73
2022-12-24T14:06:29.332Z,16.29
2022-12-24T14:11:52.996Z,16.07
2022-12-24T14:17:00.354Z,16.40
2022-12-24T14:22:26.098Z,16.07
2022-12-24T14:55:55.958Z,14.68
2022-12-24T15:01:18.414Z,14.98
2022-12-24T15:06:22.486Z,14.50
2022-12-24T15:11:26.590Z,14.17
2022-12-24T15:16:35.221Z,13.86
2022-12-24T15:21:42.370Z,13.48
2022-12-24T15:26:46.608Z,13.15
2022-12-24T15:31:57.950Z,12.65
2022-12-24T15:37:15.313Z,12.34
2022-12-24T15:42:22.890Z,12.02
2022-12-24T15:47:39.923Z,11.50
2022-12-24T15:52:45.168Z,11.13
2022-12-24T15:57:51.455Z,10.76
2022-12-24T16:02:56.546Z,10.62
2022-12-24T16:08:09.034Z,10.40
2022-12-24T16:13:19.902Z,10.21
2022-12-24T16:18:40.683Z,10.06
2022-12-24T16:23:52.579Z,9.80
2022-12-24T16:28:57.779Z,9.65
2022-12-24T16:34:04.031Z,9.48
2022-12-24T16:39:25.328Z,9.31
2022-12-24T16:44:30.070Z,9.20
2022-12-24T16:49:33.107Z,9.22
2022-12-24T16:54:37.022Z,9.10
2022-12-24T16:59:41.169Z,8.95
2022-12-24T17:04:46.135Z,8.85
2022-12-24T17:09:50.019Z,8.81
2022-12-24T17:14:53.457Z,8.74
2022-12-24T17:19:58.720Z,8.61
2022-12-24T17:25:02.672Z,8.50
2022-12-24T17:30:06.525Z,8.48
2022-12-24T17:35:10.389Z,8.43
2022-12-24T17:40:13.638Z,8.48
2022-12-24T17:45:17.270Z,8.43
2022-12-24T17:50:21.448Z,8.38
2022-12-24T17:55:24.632Z,8.33
2022-12-24T18:00:32.969Z,8.33
2022-12-24T18:05:37.146Z,8.47
2022-12-24T18:10:41.269Z,8.44
2022-12-24T18:15:45.433Z,8.23
2022-12-24T18:20:49.233Z,8.11
2022-12-24T18:25:53.325Z,8.00
2022-12-24T18:31:00.871Z,8.01
2022-12-24T18:36:05.400Z,7.90
2022-12-24T18:41:12.038Z,7.87
2022-12-24T18:46:25.406Z,7.87
2022-12-24T18:51:32.658Z,7.80
2022-12-24T18:56:35.974Z,7.70
2022-12-24T19:01:40.309Z,7.70
2022-12-24T19:06:49.101Z,7.71
2022-12-24T19:11:57.680Z,7.67
2022-12-24T19:17:01.529Z,7.74
2022-12-24T19:22:05.335Z,7.64
2022-12-24T19:27:09.395Z,7.48
2022-12-24T19:32:13.275Z,7.35
2022-12-24T19:37:16.686Z,7.29
2022-12-24T19:42:20.615Z,7.43
2022-12-24T19:47:24.599Z,7.27
2022-12-24T19:52:28.685Z,7.11
2022-12-24T19:57:31.745Z,7.00
2022-12-24T20:02:35.847Z,7.11
2022-12-24T20:07:39.735Z,6.91
2022-12-24T20:12:42.824Z,6.86
2022-12-24T20:17:52.446Z,6.92
2022-12-24T20:22:56.066Z,6.88
2022-12-24T20:28:00.199Z,6.87
2022-12-24T20:33:04.815Z,6.97
2022-12-24T20:38:08.498Z,6.93
2022-12-24T20:43:12.898Z,6.85
2022-12-24T20:48:16.419Z,6.85
2022-12-24T20:53:20.130Z,6.93
2022-12-24T20:58:24.550Z,6.88
2022-12-24T21:03:28.831Z,6.96
2022-12-24T21:08:33.100Z,6.93
2022-12-24T21:13:36.626Z,6.98
2022-12-24T21:18:40.944Z,6.98
2022-12-24T21:23:44.685Z,7.00
2022-12-24T21:28:49.275Z,7.04
2022-12-24T21:33:53.147Z,7.11
2022-12-24T21:38:57.689Z,7.04
2022-12-24T21:44:02.483Z,7.14
2022-12-24T21:49:35.158Z,7.04
2022-12-24T21:54:38.857Z,7.14
2022-12-24T21:59:43.205Z,7.21
2022-12-24T22:04:47.022Z,7.14
2022-12-24T22:10:23.364Z,7.06
2022-12-24T22:15:27.695Z,7.06
2022-12-24T22:20:31.943Z,7.13
2022-12-24T22:25:36.226Z,7.20
2022-12-24T22:30:42.828Z,7.09
2022-12-24T22:35:46.546Z,7.01
2022-12-24T22:40:50.038Z,6.90
2022-12-24T22:45:53.729Z,6.84
2022-12-24T22:50:57.594Z,6.93
2022-12-24T22:56:02.031Z,6.91
2022-12-24T23:01:05.709Z,6.91
2022-12-24T23:06:08.791Z,6.93
2022-12-24T23:11:15.358Z,6.85
2022-12-24T23:16:19.091Z,6.78
2022-12-24T23:21:22.690Z,6.76
2022-12-24T23:26:25.895Z,6.86
2022-12-24T23:31:30.357Z,6.82
2022-12-24T23:36:34.478Z,6.93
2022-12-24T23:41:38.078Z,6.99
2022-12-24T23:46:41.728Z,7.04
2022-12-24T23:51:45.777Z,7.09
2022-12-24T23:56:49.435Z,7.07
